createdAt,value
2022-12-20T00:00:13.329Z,9.30
2022-12-20T00:02:42.430Z,12.33
2022-12-20T00:05:10.414Z,11.50
2022-12-20T00:07:38.374Z,11.27
2022-12-20T00:10:07.433Z,10.97
2022-12-20T00:12:35.015Z,8.87
2022-12-20T00:15:02.541Z,14.13
2022-12-20T00:17:30.129Z,12.70
2022-12-20T00:19:59.189Z,10.67
2022-12-20T00:22:26.882Z,10.47
2022-12-20T00:24:54.642Z,9.70
2022-12-20T00:27:22.289Z,10.40
2022-12-20T00:29:50.208Z,12.10
2022-12-20T00:32:17.787Z,9.23
2022-12-20T00:34:46.492Z,8.53
2022-12-20T00:37:15.411Z,10.17
2022-12-20T00:39:43.098Z,13.93
2022-12-20T00:42:12.097Z,11.40
2022-12-20T00:44:39.633Z,8.87
2022-12-20T00:47:07.286Z,9.50
2022-12-20T00:49:34.876Z,10.37
2022-12-20T00:52:02.433Z,9.60
2022-12-20T00:54:31.369Z,9.47
2022-12-20T00:56:58.968Z,11.43
2022-12-20T00:59:26.933Z,15.00
2022-12-20T01:01:54.677Z,9.43
2022-12-20T01:04:22.361Z,8.87
2022-12-20T01:06:50.117Z,10.07
2022-12-20T01:09:18.240Z,12.13
2022-12-20T01:11:47.333Z,13.27
2022-12-20T01:14:16.218Z,10.50
2022-12-20T01:16:45.870Z,13.03
2022-12-20T01:19:16.925Z,13.10
2022-12-20T01:21:45.312Z,9.20
2022-12-20T01:24:13.109Z,10.00
2022-12-20T01:26:40.730Z,8.10
2022-12-20T01:29:10.223Z,9.10
2022-12-20T01:31:38.309Z,10.20
2022-12-20T01:34:06.259Z,11.90
2022-12-20T01:36:35.544Z,11.73
2022-12-20T01:39:06.922Z,9.00
2022-12-20T01:41:36.226Z,11.03
2022-12-20T01:44:05.755Z,10.40
2022-12-20T01:46:36.592Z,14.47
2022-12-20T01:49:07.740Z,11.47
2022-12-20T01:51:37.879Z,12.80
2022-12-20T01:54:09.480Z,10.13
2022-12-20T01:56:37.756Z,10.63
2022-12-20T01:59:05.421Z,9.23
2022-12-20T02:01:35.030Z,8.77
2022-12-20T02:04:03.643Z,8.47
2022-12-20T02:06:31.309Z,13.13
2022-12-20T02:09:02.764Z,8.87
2022-12-20T02:11:42.245Z,9.17
2022-12-20T02:14:13.984Z,9.60
2022-12-20T02:16:47.787Z,10.10
2022-12-20T02:19:31.429Z,10.80
2022-12-20T02:22:08.886Z,8.03
2022-12-20T02:24:55.730Z,9.77
2022-12-20T02:27:47.204Z,10.27
2022-12-20T02:30:20.595Z,10.83
2022-12-20T02:32:59.007Z,12.80
2022-12-20T02:35:31.151Z,10.67
2022-12-20T02:38:02.053Z,11.23
2022-12-20T02:40:33.117Z,7.70
2022-12-20T02:43:04.259Z,10.63
2022-12-20T02:45:35.057Z,8.27
2022-12-20T02:48:04.882Z,11.07
2022-12-20T02:50:38.461Z,14.70
2022-12-20T02:53:07.680Z,7.93
2022-12-20T02:55:42.268Z,9.23
2022-12-20T02:58:14.341Z,16.80
2022-12-20T03:00:44.531Z,8.70
2022-12-20T03:03:24.884Z,9.73
2022-12-20T03:05:55.651Z,7.13
2022-12-20T03:08:24.194Z,11.20
2022-12-20T03:10:53.235Z,8.10
2022-12-20T03:13:21.470Z,9.40
2022-12-20T03:16:10.677Z,13.10
2022-12-20T03:18:38.912Z,11.53
2022-12-20T03:21:07.032Z,6.97
2022-12-20T03:23:35.225Z,6.73
2022-12-20T03:26:02.933Z,7.10
2022-12-20T03:28:35.869Z,7.57
2022-12-20T03:31:03.732Z,10.87
2022-12-20T03:33:38.534Z,7.00
2022-12-20T03:36:08.928Z,8.80
2022-12-20T03:38:37.989Z,8.00
2022-12-20T03:41:07.520Z,11.80
2022-12-20T03:43:35.177Z,10.17
2022-12-20T03:46:03.164Z,9.13
2022-12-20T03:48:35.610Z,8.07
2022-12-20T03:51:04.771Z,9.40
2022-12-20T03:53:32.683Z,11.57
2022-12-20T03:56:01.490Z,6.90
2022-12-20T03:58:29.271Z,8.43
2022-12-20T04:00:57.848Z,11.00
2022-12-20T04:03:44.645Z,8.50
2022-12-20T04:06:13.811Z,6.57
2022-12-20T04:08:42.238Z,7.37
2022-12-20T04:11:19.414Z,8.77
2022-12-20T04:14:07.801Z,8.33
2022-12-20T04:16:36.439Z,6.70
2022-12-20T04:19:06.845Z,11.80
2022-12-20T04:21:41.562Z,7.33
2022-12-20T04:24:09.212Z,10.53
2022-12-20T04:26:52.336Z,8.50
2022-12-20T04:29:19.924Z,7.80
2022-12-20T04:31:48.831Z,6.90
2022-12-20T04:34:16.766Z,8.20
2022-12-20T04:36:45.991Z,7.73
2022-12-20T04:39:20.341Z,6.20
2022-12-20T04:42:14.476Z,5.40
2022-12-20T04:44:42.710Z,5.87
2022-12-20T04:47:12.778Z,8.00
2022-12-20T04:49:40.611Z,8.97
2022-12-20T04:52:23.718Z,7.70
2022-12-20T04:54:51.491Z,7.80
2022-12-20T04:57:25.596Z,10.63
2022-12-20T04:59:53.177Z,7.90
2022-12-20T05:02:20.890Z,8.37
2022-12-20T05:04:52.301Z,9.70
2022-12-20T05:07:21.201Z,10.23
2022-12-20T05:09:52.980Z,9.40
2022-12-20T05:12:20.561Z,9.67
2022-12-20T05:14:48.443Z,7.70
2022-12-20T05:17:20.746Z,9.10
2022-12-20T05:19:48.460Z,12.07
2022-12-20T05:22:34.810Z,6.30
2022-12-20T05:25:30.886Z,5.90
2022-12-20T05:28:02.660Z,8.10
2022-12-20T05:30:34.596Z,6.93
2022-12-20T05:33:02.466Z,7.43
2022-12-20T05:35:31.209Z,11.60
2022-12-20T05:38:05.619Z,8.60
2022-12-20T05:40:35.581Z,8.27
2022-12-20T05:43:03.427Z,10.93
2022-12-20T05:45:47.188Z,8.00
2022-12-20T05:48:17.089Z,10.03
2022-12-20T05:50:45.872Z,9.63
2022-12-20T05:53:29.085Z,12.93
2022-12-20T05:56:02.288Z,9.63
2022-12-20T05:58:33.054Z,8.20
2022-12-20T06:01:02.894Z,11.13
2022-12-20T06:03:33.102Z,10.77
2022-12-20T06:06:06.038Z,14.67
2022-12-20T06:08:36.503Z,13.93
2022-12-20T06:11:09.710Z,11.87
2022-12-20T06:13:47.497Z,11.37
2022-12-20T06:16:15.531Z,11.40
2022-12-20T06:18:44.310Z,16.80
2022-12-20T06:21:13.575Z,12.70
2022-12-20T06:23:41.424Z,9.87
2022-12-20T06:26:14.050Z,11.03
2022-12-20T06:28:52.350Z,10.60
2022-12-20T06:31:25.775Z,9.17
2022-12-20T06:33:55.323Z,15.07
2022-12-20T06:36:26.097Z,10.17
2022-12-20T06:38:54.474Z,10.33
2022-12-20T06:41:23.639Z,10.83
2022-12-20T06:43:53.064Z,13.83
2022-12-20T06:46:20.914Z,9.93
2022-12-20T06:48:49.084Z,14.87
2022-12-20T06:51:18.444Z,9.07
2022-12-20T06:53:46.354Z,12.57
2022-12-20T06:56:14.118Z,10.60
2022-12-20T06:58:43.733Z,13.50
2022-12-20T07:01:12.202Z,29.33
2022-12-20T07:03:39.944Z,10.93
2022-12-20T07:06:07.909Z,8.93
2022-12-20T07:08:35.545Z,11.93
2022-12-20T07:11:06.888Z,10.70
2022-12-20T07:13:34.623Z,13.10
2022-12-20T07:16:04.591Z,12.20
2022-12-20T07:18:32.709Z,10.87
2022-12-20T07:21:00.988Z,11.50
2022-12-20T07:23:28.809Z,13.23
2022-12-20T07:25:56.805Z,14.10
2022-12-20T07:28:24.899Z,12.20
2022-12-20T07:30:54.216Z,12.40
2022-12-20T07:33:23.142Z,16.77
2022-12-20T07:35:54.437Z,10.87
2022-12-20T07:38:22.612Z,13.00
2022-12-20T07:40:50.519Z,10.20
2022-12-20T07:43:18.228Z,9.60
2022-12-20T07:45:47.510Z,11.80
2022-12-20T07:48:19.643Z,14.10
2022-12-20T07:50:50.795Z,10.67
2022-12-20T07:53:18.788Z,12.30
2022-12-20T07:55:46.708Z,17.73
2022-12-20T07:58:15.384Z,12.20
2022-12-20T08:00:43.142Z,14.57
2022-12-20T08:03:14.985Z,11.50
2022-12-20T08:05:45.288Z,13.90
2022-12-20T08:08:15.072Z,11.63
2022-12-20T08:10:42.782Z,14.50
2022-12-20T08:13:10.641Z,19.00
2022-12-20T08:15:38.479Z,12.80
2022-12-20T08:18:06.425Z,17.17
2022-12-20T08:20:34.615Z,13.50
2022-12-20T08:23:04.109Z,13.03
2022-12-20T08:25:41.192Z,14.37
2022-12-20T08:28:09.621Z,10.83
2022-12-20T08:30:37.482Z,14.97
2022-12-20T08:33:05.600Z,13.87
2022-12-20T08:35:33.362Z,16.90
2022-12-20T08:38:00.961Z,14.33
2022-12-20T08:40:28.598Z,15.33
2022-12-20T08:42:57.519Z,14.23
2022-12-20T08:45:25.147Z,15.00
2022-12-20T08:47:52.755Z,15.40
2022-12-20T08:50:20.464Z,10.57
2022-12-20T08:52:48.138Z,12.87
2022-12-20T08:55:15.951Z,13.67
2022-12-20T08:57:43.675Z,15.93
2022-12-20T09:00:14.899Z,13.20
2022-12-20T09:02:42.872Z,12.70
2022-12-20T09:05:11.145Z,12.40
2022-12-20T09:07:38.789Z,13.00
2022-12-20T09:10:07.865Z,12.53
2022-12-20T09:12:37.713Z,13.23
2022-12-20T09:15:06.937Z,13.83
2022-12-20T09:17:35.897Z,14.93
2022-12-20T09:20:04.025Z,21.80
2022-12-20T09:22:31.779Z,15.07
2022-12-20T09:24:59.514Z,23.37
2022-12-20T09:27:27.200Z,17.57
2022-12-20T09:29:55.181Z,11.93
2022-12-20T09:32:23.113Z,14.03
2022-12-20T09:34:52.234Z,16.60
2022-12-20T09:37:19.894Z,12.60
2022-12-20T09:39:49.769Z,14.47
2022-12-20T09:42:18.078Z,13.80
2022-12-20T09:44:46.417Z,11.20
2022-12-20T09:47:17.037Z,14.20
2022-12-20T09:49:46.827Z,14.43
2022-12-20T09:52:33.716Z,11.83
2022-12-20T09:55:08.630Z,14.20
2022-12-20T09:57:50.852Z,9.60
2022-12-20T10:00:20.364Z,17.53
2022-12-20T10:03:09.802Z,12.53
2022-12-20T10:05:41.683Z,12.93
2022-12-20T10:08:18.360Z,16.37
2022-12-20T10:10:53.582Z,11.57
2022-12-20T10:13:30.567Z,12.93
2022-12-20T10:16:16.680Z,12.50
2022-12-20T10:18:53.414Z,11.80
2022-12-20T10:21:26.871Z,11.53
2022-12-20T10:24:01.472Z,8.87
2022-12-20T10:26:30.263Z,9.57
2022-12-20T10:28:58.105Z,15.03
2022-12-20T10:31:26.376Z,10.03
2022-12-20T10:33:54.175Z,11.67
2022-12-20T10:36:26.238Z,10.27
2022-12-20T10:38:55.781Z,9.33
2022-12-20T10:41:26.986Z,12.40
2022-12-20T10:43:59.061Z,14.43
2022-12-20T10:46:36.603Z,15.07
2022-12-20T10:49:31.794Z,10.03
2022-12-20T10:52:01.539Z,18.43
2022-12-20T10:54:35.012Z,9.77
2022-12-20T10:57:06.751Z,10.53
2022-12-20T10:59:38.078Z,10.20
2022-12-20T11:02:25.375Z,10.37
2022-12-20T11:05:00.288Z,13.07
2022-12-20T11:07:30.006Z,11.50
2022-12-20T11:10:00.235Z,11.03
2022-12-20T11:12:29.513Z,13.30
2022-12-20T11:15:09.845Z,11.63
2022-12-20T11:17:39.079Z,9.10
2022-12-20T11:20:23.874Z,8.53
2022-12-20T11:22:57.333Z,9.37
2022-12-20T11:25:38.123Z,13.40
2022-12-20T11:28:19.405Z,10.77
2022-12-20T11:30:55.166Z,13.03
2022-12-20T11:33:48.069Z,11.23
2022-12-20T11:36:22.582Z,9.13
2022-12-20T11:38:52.066Z,11.13
2022-12-20T11:41:23.042Z,11.80
2022-12-20T11:44:25.136Z,11.80
2022-12-20T11:47:03.523Z,10.93
2022-12-20T11:49:53.264Z,8.70
2022-12-20T11:52:29.690Z,12.10
2022-12-20T11:55:04.390Z,10.67
2022-12-20T11:58:01.762Z,9.30
2022-12-20T12:00:26.385Z,7.80
2022-12-20T12:02:59.001Z,7.07
2022-12-20T12:05:29.811Z,7.80
2022-12-20T12:08:02.550Z,7.07
2022-12-20T12:10:32.817Z,6.70
2022-12-20T12:13:06.059Z,7.30
2022-12-20T12:15:39.855Z,7.87
2022-12-20T12:18:10.373Z,8.13
2022-12-20T12:20:45.804Z,7.93
2022-12-20T12:23:18.454Z,9.63
2022-12-20T12:25:46.634Z,10.27
2022-12-20T12:28:15.167Z,7.03
2022-12-20T12:30:47.481Z,9.63
2022-12-20T12:33:24.104Z,10.00
2022-12-20T12:35:59.810Z,13.73
2022-12-20T12:38:47.707Z,10.73
2022-12-20T12:41:31.813Z,11.30
2022-12-20T12:44:02.008Z,7.40
2022-12-20T12:46:35.015Z,7.60
2022-12-20T12:49:05.387Z,8.63
2022-12-20T12:51:34.906Z,10.33
2022-12-20T12:54:17.564Z,8.07
2022-12-20T12:56:47.236Z,15.60
2022-12-20T12:59:51.712Z,5.80
2022-12-20T13:02:49.303Z,13.53
2022-12-20T13:05:35.268Z,6.63
2022-12-20T13:08:03.153Z,6.80
2022-12-20T13:11:01.994Z,9.20
2022-12-20T13:13:29.924Z,7.20
2022-12-20T13:16:12.530Z,7.90
2022-12-20T13:18:59.039Z,14.60
2022-12-20T13:21:33.642Z,6.67
2022-12-20T13:24:37.823Z,6.47
2022-12-20T13:27:16.559Z,7.63
2022-12-20T13:29:56.490Z,9.70
2022-12-20T13:33:01.650Z,13.97
2022-12-20T13:35:33.233Z,8.67
2022-12-20T13:38:04.679Z,8.27
2022-12-20T13:40:37.135Z,8.80
2022-12-20T13:43:09.582Z,8.87
2022-12-20T13:45:39.170Z,11.83
2022-12-20T13:48:11.386Z,7.80
2022-12-20T13:50:41.548Z,13.03
2022-12-20T13:53:17.679Z,15.13
2022-12-20T13:55:45.459Z,8.30
2022-12-20T13:58:15.682Z,9.90
2022-12-20T14:00:43.566Z,12.13
2022-12-20T14:03:20.757Z,9.77
2022-12-20T14:05:50.156Z,12.50
2022-12-20T14:08:20.165Z,12.77
2022-12-20T14:10:48.157Z,10.60
2022-12-20T14:13:22.171Z,11.07
2022-12-20T14:15:50.058Z,12.53
2022-12-20T14:18:19.194Z,11.07
2022-12-20T14:20:50.014Z,10.17
2022-12-20T14:23:18.800Z,7.93
2022-12-20T14:25:48.809Z,9.93
2022-12-20T14:28:27.630Z,12.07
2022-12-20T14:30:56.335Z,15.87
2022-12-20T14:33:29.849Z,9.87
2022-12-20T14:36:11.771Z,10.20
2022-12-20T14:38:40.367Z,10.80
2022-12-20T14:41:30.145Z,10.53
2022-12-20T14:43:58.366Z,11.17
2022-12-20T14:46:26.125Z,12.73
2022-12-20T14:49:08.010Z,11.10
2022-12-20T14:51:37.113Z,14.40
2022-12-20T14:54:05.139Z,11.03
2022-12-20T14:56:33.429Z,9.00
2022-12-20T14:59:14.779Z,11.90
2022-12-20T15:01:44.596Z,9.97
2022-12-20T15:04:26.707Z,11.13
2022-12-20T15:06:55.760Z,8.97
2022-12-20T15:09:23.406Z,10.17
2022-12-20T15:11:52.616Z,11.60
2022-12-20T15:14:34.623Z,10.63
2022-12-20T15:17:02.302Z,16.43
2022-12-20T15:19:31.355Z,14.40
2022-12-20T15:22:01.053Z,13.30
2022-12-20T15:24:29.527Z,11.63
2022-12-20T15:26:57.539Z,16.40
2022-12-20T15:29:26.680Z,11.77
2022-12-20T15:31:58.338Z,9.70
2022-12-20T15:34:29.439Z,12.57
2022-12-20T15:36:59.947Z,10.57
2022-12-20T15:39:29.846Z,14.13
2022-12-20T15:41:57.764Z,11.03
2022-12-20T15:44:27.374Z,12.67
2022-12-20T15:46:55.090Z,12.53
2022-12-20T15:49:24.345Z,12.67
2022-12-20T15:51:53.158Z,9.47
2022-12-20T15:54:24.960Z,12.57
2022-12-20T15:56:54.075Z,13.77
2022-12-20T16:02:18.798Z,16.10
2022-12-20T16:04:46.552Z,13.93
2022-12-20T16:07:14.467Z,10.73
2022-12-20T16:09:42.072Z,10.03
2022-12-20T16:12:14.531Z,11.80
2022-12-20T16:14:42.269Z,9.20
2022-12-20T16:17:13.915Z,11.03
2022-12-20T16:19:42.183Z,12.00
2022-12-20T16:22:14.211Z,12.73
2022-12-20T16:24:41.833Z,10.53
2022-12-20T16:27:09.444Z,11.10
2022-12-20T16:29:38.386Z,8.80
2022-12-20T16:32:13.204Z,11.03
2022-12-20T16:34:40.858Z,13.07
2022-12-20T16:37:08.529Z,8.43
2022-12-20T16:39:36.208Z,14.47
2022-12-20T16:42:03.820Z,13.33
2022-12-20T16:44:31.359Z,8.60
2022-12-20T16:47:00.309Z,16.17
2022-12-20T16:49:27.955Z,9.70
2022-12-20T16:51:55.618Z,9.70
2022-12-20T16:54:23.855Z,10.93
2022-12-20T16:56:55.444Z,10.20
2022-12-20T16:59:23.496Z,11.40
2022-12-20T17:01:53.493Z,19.53
2022-12-20T17:04:23.345Z,15.67
2022-12-20T17:06:51.324Z,14.43
2022-12-20T17:09:19.759Z,15.60
2022-12-20T17:11:50.139Z,10.70
2022-12-20T17:14:19.820Z,12.27
2022-12-20T17:16:47.761Z,11.83
2022-12-20T17:19:15.477Z,13.20
2022-12-20T17:24:30.907Z,20.27
2022-12-20T17:26:58.631Z,11.87
2022-12-20T17:29:26.209Z,11.10
2022-12-20T17:31:54.083Z,12.97
2022-12-20T17:34:23.521Z,25.30
2022-12-20T17:36:54.299Z,15.50
2022-12-20T17:39:22.529Z,12.70
2022-12-20T17:41:50.655Z,16.03
2022-12-20T17:44:20.565Z,17.67
2022-12-20T17:46:48.735Z,11.90
2022-12-20T17:49:16.928Z,12.23
2022-12-20T17:51:44.745Z,14.27
2022-12-20T17:54:18.832Z,17.60
2022-12-20T17:56:46.885Z,10.97
2022-12-20T17:59:15.528Z,13.43
2022-12-20T18:01:44.361Z,11.27
2022-12-20T18:04:14.149Z,10.27
2022-12-20T18:06:43.765Z,12.77
2022-12-20T18:09:16.427Z,12.90
2022-12-20T18:11:44.805Z,12.30
2022-12-20T18:14:12.797Z,12.00
2022-12-20T18:16:41.085Z,13.90
2022-12-20T18:19:09.750Z,14.50
2022-12-20T18:21:37.390Z,13.10
2022-12-20T18:24:05.247Z,15.23
2022-12-20T18:26:34.595Z,22.03
2022-12-20T18:29:03.515Z,10.70
2022-12-20T18:31:32.609Z,16.33
2022-12-20T18:34:00.942Z,15.37
2022-12-20T18:36:30.018Z,15.60
2022-12-20T18:38:59.158Z,12.57
2022-12-20T18:41:28.601Z,14.93
2022-12-20T18:44:00.411Z,13.70
2022-12-20T18:46:28.531Z,17.20
2022-12-20T18:48:59.003Z,14.43
2022-12-20T18:51:27.776Z,13.27
2022-12-20T18:53:56.584Z,14.47
2022-12-20T18:56:26.219Z,14.53
2022-12-20T18:58:54.013Z,17.60
2022-12-20T19:01:25.117Z,17.80
2022-12-20T19:03:54.137Z,12.83
2022-12-20T19:06:22.119Z,15.17
2022-12-20T19:08:50.188Z,14.63
2022-12-20T19:11:19.396Z,22.40
2022-12-20T19:13:47.587Z,14.70
2022-12-20T19:16:16.775Z,14.10
2022-12-20T19:18:46.205Z,17.73
2022-12-20T19:21:16.014Z,17.93
2022-12-20T19:23:45.461Z,13.87
2022-12-20T19:26:14.356Z,15.90
2022-12-20T19:28:43.328Z,18.30
2022-12-20T19:31:19.302Z,15.30
2022-12-20T19:33:51.871Z,18.20
2022-12-20T19:36:22.131Z,17.97
2022-12-20T19:38:51.544Z,17.50
2022-12-20T19:41:20.562Z,17.07
2022-12-20T19:43:49.220Z,19.20
2022-12-20T19:46:17.190Z,18.13
2022-12-20T19:48:45.179Z,17.30
2022-12-20T19:51:15.797Z,18.57
2022-12-20T19:53:45.487Z,18.77
2022-12-20T19:56:14.139Z,26.07
2022-12-20T19:58:42.156Z,21.67
2022-12-20T20:01:10.516Z,23.77
2022-12-20T20:03:38.469Z,19.53
2022-12-20T20:06:07.636Z,21.80
2022-12-20T20:08:36.837Z,18.30
2022-12-20T20:11:09.416Z,21.50
2022-12-20T20:13:38.200Z,19.53
2022-12-20T20:16:07.148Z,24.07
2022-12-20T20:18:36.344Z,19.67
2022-12-20T20:21:07.240Z,24.53
2022-12-20T20:23:37.686Z,21.53
2022-12-20T20:26:08.985Z,19.90
2022-12-20T20:28:43.723Z,20.97
2022-12-20T20:31:14.398Z,22.60
2022-12-20T20:33:42.372Z,21.93
2022-12-20T20:36:13.859Z,20.43
2022-12-20T20:38:42.912Z,22.03
2022-12-20T20:41:11.073Z,21.77
2022-12-20T20:43:38.854Z,20.43
2022-12-20T20:46:08.281Z,23.00
2022-12-20T20:48:36.454Z,21.53
2022-12-20T20:51:04.476Z,22.10
2022-12-20T20:53:34.268Z,21.60
2022-12-20T20:56:04.078Z,22.63
2022-12-20T20:58:32.025Z,23.30
2022-12-20T21:01:00.828Z,25.73
2022-12-20T21:03:29.879Z,23.27
2022-12-20T21:08:46.117Z,24.20
2022-12-20T21:11:15.523Z,25.93
2022-12-20T21:13:43.285Z,25.03
2022-12-20T21:16:12.529Z,27.53
2022-12-20T21:18:40.803Z,24.87
2022-12-20T21:21:09.302Z,27.03
2022-12-20T21:23:37.049Z,26.13
2022-12-20T21:26:04.787Z,24.30
2022-12-20T21:28:33.802Z,23.50
2022-12-20T21:31:02.704Z,26.43
2022-12-20T21:33:30.881Z,28.70
2022-12-20T21:36:02.238Z,25.50
2022-12-20T21:38:30.251Z,25.00
2022-12-20T21:41:01.832Z,24.53
2022-12-20T21:43:30.274Z,25.50
2022-12-20T21:45:59.635Z,25.53
2022-12-20T21:48:27.595Z,26.27
2022-12-20T21:50:59.726Z,25.73
2022-12-20T21:53:27.384Z,26.87
2022-12-20T21:55:56.081Z,25.90
2022-12-20T21:58:24.233Z,27.00
2022-12-20T22:00:55.029Z,25.53
2022-12-20T22:03:25.124Z,24.70
2022-12-20T22:05:55.614Z,24.60
2022-12-20T22:08:24.431Z,23.33
2022-12-20T22:10:59.965Z,25.27
2022-12-20T22:13:27.716Z,24.30
2022-12-20T22:15:55.445Z,23.57
2022-12-20T22:18:25.033Z,24.50
2022-12-20T22:20:52.644Z,24.17
2022-12-20T22:23:20.321Z,21.80
2022-12-20T22:25:47.996Z,25.13
2022-12-20T22:28:15.593Z,24.23
2022-12-20T22:30:43.770Z,22.47
2022-12-20T22:33:11.593Z,22.03
2022-12-20T22:35:41.125Z,24.10
2022-12-20T22:38:08.743Z,23.30
2022-12-20T22:40:36.568Z,21.30
2022-12-20T22:43:04.254Z,22.43
2022-12-20T22:45:31.952Z,25.27
2022-12-20T22:47:59.588Z,22.93
2022-12-20T22:50:27.282Z,22.47
2022-12-20T22:52:56.213Z,22.10
2022-12-20T22:55:23.946Z,24.60
2022-12-20T22:57:51.564Z,22.93
2022-12-20T23:00:19.411Z,23.97
2022-12-20T23:02:47.285Z,23.00
2022-12-20T23:05:15.445Z,24.47
2022-12-20T23:07:43.108Z,23.13
2022-12-20T23:10:34.403Z,23.73
2022-12-20T23:13:21.812Z,23.50
2022-12-20T23:15:49.741Z,23.27
2022-12-20T23:18:17.530Z,25.00
2022-12-20T23:21:07.959Z,25.00
2022-12-20T23:23:35.737Z,23.80
2022-12-20T23:26:11.291Z,23.53
2022-12-20T23:28:38.972Z,23.37
2022-12-20T23:31:07.026Z,23.70
2022-12-20T23:33:35.003Z,24.77
2022-12-20T23:36:04.967Z,22.43
2022-12-20T23:38:33.279Z,21.30
2022-12-20T23:41:01.005Z,24.03
2022-12-20T23:43:31.678Z,25.40
2022-12-20T23:46:03.891Z,20.00
2022-12-20T23:48:31.931Z,22.20
2022-12-20T23:51:00.289Z,19.87
2022-12-20T23:53:27.967Z,19.63
2022-12-20T23:56:00.532Z,23.40
2022-12-20T23:58:28.461Z,20.33
